Time;durP1;ratioP1;P1;durP2;ratioP2;P2;SDS_P1;SDS_P2;PMS_P1;PMS_P2;Temp;Humidity;BMP_temperature;BMP_pressure;BME280_temperature;BME280_humidity;BME280_pressure;Samples;Min_cycle;Max_cycle;Signal;HPM_P1;HPM_P2
2023/05/10 00:00:15;;;;;;;11.77;6.87;;;14.10;99.90;;;;;;4958497;28;20565;-79
2023/05/10 00:02:41;;;;;;;11.83;7.30;;;14.00;99.90;;;;;;4959192;28;20169;-83
2023/05/10 00:05:08;;;;;;;10.63;7.03;;;14.10;99.90;;;;;;4959172;28;20682;-84
2023/05/10 00:07:34;;;;;;;11.47;7.37;;;14.10;99.90;;;;;;4957393;28;20172;-83
2023/05/10 00:09:59;;;;;;;13.63;7.50;;;14.10;99.90;;;;;;4957143;28;20504;-80
2023/05/10 00:12:25;;;;;;;10.60;7.00;;;14.10;99.90;;;;;;4955947;28;20208;-80
2023/05/10 00:14:51;;;;;;;8.97;6.97;;;14.00;99.90;;;;;;4956991;28;20261;-80
2023/05/10 00:17:16;;;;;;;10.40;7.57;;;14.10;99.90;;;;;;4956248;28;20623;-83
2023/05/10 00:19:42;;;;;;;11.90;7.80;;;14.00;99.90;;;;;;4955782;28;20304;-80
2023/05/10 00:22:08;;;;;;;10.57;7.40;;;14.00;99.90;;;;;;4956840;28;20355;-81
2023/05/10 00:24:33;;;;;;;12.93;7.33;;;14.00;99.90;;;;;;4955621;28;20188;-80
2023/05/10 00:27:00;;;;;;;11.37;7.60;;;13.90;99.90;;;;;;4956061;28;20590;-81
2023/05/10 00:29:27;;;;;;;11.97;7.10;;;13.90;99.90;;;;;;4955641;28;20235;-79
2023/05/10 00:31:53;;;;;;;10.47;7.40;;;13.90;99.90;;;;;;4956747;28;20168;-84
2023/05/10 00:34:19;;;;;;;13.40;8.20;;;13.80;99.90;;;;;;4956619;28;20552;-79
2023/05/10 00:36:45;;;;;;;11.87;7.50;;;13.80;99.90;;;;;;4956370;28;20184;-85
2023/05/10 00:39:11;;;;;;;12.13;8.30;;;13.80;99.90;;;;;;4955470;28;20211;-80
2023/05/10 00:41:36;;;;;;;11.13;7.60;;;13.90;99.90;;;;;;4955751;28;20169;-82
2023/05/10 00:44:02;;;;;;;13.90;7.60;;;14.00;99.90;;;;;;4956127;28;20185;-85
2023/05/10 00:46:29;;;;;;;11.37;7.80;;;13.90;99.90;;;;;;4970603;28;20186;-81
2023/05/10 00:48:54;;;;;;;12.23;8.13;;;13.90;99.90;;;;;;4969770;28;20202;-80
2023/05/10 00:51:20;;;;;;;11.87;8.17;;;14.00;99.90;;;;;;4955885;28;20176;-79
2023/05/10 00:53:46;;;;;;;11.90;7.80;;;14.00;99.90;;;;;;4969809;28;20628;-80
2023/05/10 00:56:12;;;;;;;12.33;8.67;;;14.00;99.90;;;;;;4969013;28;20188;-79
2023/05/10 00:58:39;;;;;;;11.30;7.80;;;14.10;99.90;;;;;;4955371;28;20169;-80
2023/05/10 01:01:06;;;;;;;11.33;7.93;;;14.00;99.90;;;;;;4970718;28;20208;-80
2023/05/10 01:03:32;;;;;;;11.90;8.10;;;14.00;99.90;;;;;;4970391;28;20208;-79
2023/05/10 01:05:58;;;;;;;12.37;7.90;;;14.10;99.90;;;;;;4968060;28;20160;-80
2023/05/10 01:08:24;;;;;;;13.53;9.20;;;14.10;99.90;;;;;;4974804;28;20211;-79
2023/05/10 01:10:50;;;;;;;12.67;8.47;;;14.10;99.90;;;;;;4957242;28;20651;-80
2023/05/10 01:13:37;;;;;;;12.07;8.77;;;14.10;99.90;;;;;;4955321;28;20252;-79
2023/05/10 01:16:04;;;;;;;14.00;8.90;;;14.00;99.90;;;;;;4955056;28;20164;-80
2023/05/10 01:18:35;;;;;;;14.57;9.07;;;14.10;99.90;;;;;;4955320;28;20188;-79
2023/05/10 01:21:06;;;;;;;13.30;9.33;;;14.10;99.90;;;;;;4954545;28;20179;-79
2023/05/10 01:23:53;;;;;;;12.67;9.80;;;14.30;99.90;;;;;;4954700;28;20186;-78
2023/05/10 01:26:53;;;;;;;12.80;9.73;;;14.20;99.90;;;;;;4953534;29;20239;-79
2023/05/10 01:29:25;;;;;;;16.10;10.20;;;14.20;99.90;;;;;;4976900;28;20196;-80
2023/05/10 01:32:03;;;;;;;16.13;10.67;;;14.20;99.90;;;;;;4975137;29;20176;-79
2023/05/10 01:34:35;;;;;;;16.27;11.17;;;14.30;99.90;;;;;;4968691;29;20172;-79
2023/05/10 01:37:37;;;;;;;15.27;10.93;;;14.30;99.90;;;;;;4964501;29;20246;-86
2023/05/10 01:40:14;;;;;;;14.50;10.50;;;14.30;99.90;;;;;;4932163;29;20228;-80
2023/05/10 01:42:47;;;;;;;15.17;10.60;;;14.20;99.90;;;;;;4935121;29;20211;-84
2023/05/10 01:45:31;;;;;;;13.33;10.57;;;14.20;99.90;;;;;;4935823;29;20626;-79
2023/05/10 01:48:11;;;;;;;15.53;10.13;;;14.10;99.90;;;;;;4935876;29;20179;-82
2023/05/10 01:50:43;;;;;;;15.33;10.70;;;14.00;99.90;;;;;;4936217;29;20169;-84
2023/05/10 01:53:11;;;;;;;15.93;9.70;;;14.10;99.90;;;;;;4936753;29;20157;-85
2023/05/10 01:55:46;;;;;;;13.97;10.13;;;14.10;99.90;;;;;;4936788;29;20173;-81
2023/05/10 01:58:21;;;;;;;14.57;10.73;;;14.20;99.90;;;;;;4937480;29;20260;-80
2023/05/10 02:00:49;;;;;;;15.23;10.77;;;14.20;99.90;;;;;;4938143;29;20680;-79
2023/05/10 02:03:18;;;;;;;13.80;10.47;;;14.20;99.90;;;;;;4936886;29;20196;-79
2023/05/10 02:05:46;;;;;;;13.97;10.17;;;14.00;99.90;;;;;;4936192;29;20660;-80
2023/05/10 02:08:15;;;;;;;15.97;11.10;;;14.00;99.90;;;;;;4941793;29;20312;-79
2023/05/10 02:10:42;;;;;;;14.80;11.13;;;14.10;99.90;;;;;;4953463;29;20199;-81
2023/05/10 02:13:09;;;;;;;15.70;11.67;;;14.20;99.90;;;;;;4954644;28;20187;-80
2023/05/10 02:15:38;;;;;;;17.23;11.93;;;14.20;99.90;;;;;;4955107;28;20572;-83
2023/05/10 02:18:06;;;;;;;14.93;11.97;;;14.10;99.90;;;;;;4954898;28;20178;-81
2023/05/10 02:20:33;;;;;;;17.13;12.83;;;14.10;99.90;;;;;;4956861;28;20219;-80
2023/05/10 02:23:00;;;;;;;17.53;11.83;;;14.10;99.90;;;;;;4957676;28;20191;-80
2023/05/10 02:25:28;;;;;;;19.43;12.93;;;14.10;99.90;;;;;;4958710;28;20183;-80
2023/05/10 02:27:56;;;;;;;17.20;11.97;;;14.10;99.90;;;;;;4958279;28;20189;-83
2023/05/10 02:30:23;;;;;;;16.17;12.43;;;14.20;99.90;;;;;;4957920;28;20173;-81
2023/05/10 02:32:50;;;;;;;16.40;11.70;;;14.10;99.90;;;;;;4960779;28;20215;-80
2023/05/10 02:35:16;;;;;;;18.33;12.53;;;14.10;99.90;;;;;;4961896;29;20246;-80
2023/05/10 02:37:45;;;;;;;16.57;11.70;;;14.00;99.90;;;;;;4959589;28;20164;-81
2023/05/10 02:40:12;;;;;;;17.57;12.20;;;14.00;99.90;;;;;;4958637;28;20597;-79
2023/05/10 02:42:41;;;;;;;15.80;10.90;;;14.10;99.90;;;;;;4960341;29;20198;-79
2023/05/10 02:45:11;;;;;;;17.20;12.60;;;14.00;99.90;;;;;;4958049;28;20168;-80
2023/05/10 02:47:38;;;;;;;17.00;11.87;;;14.00;99.90;;;;;;4957457;29;20187;-80
2023/05/10 02:50:04;;;;;;;16.73;11.50;;;14.00;99.90;;;;;;4958165;29;20255;-81
2023/05/10 02:52:46;;;;;;;15.43;11.07;;;13.90;99.90;;;;;;4956619;28;20183;-85
2023/05/10 02:55:15;;;;;;;14.37;11.10;;;14.00;99.90;;;;;;4956101;28;20175;-86
2023/05/10 02:57:51;;;;;;;17.27;11.73;;;13.90;99.90;;;;;;4957742;28;20645;-83
2023/05/10 03:00:17;;;;;;;17.27;11.43;;;14.00;99.90;;;;;;4957419;29;20217;-79
2023/05/10 03:02:43;;;;;;;16.23;11.43;;;14.00;99.90;;;;;;4957086;28;20248;-79
2023/05/10 03:05:09;;;;;;;14.17;10.90;;;14.00;99.90;;;;;;4957781;29;20641;-80
2023/05/10 03:07:35;;;;;;;15.43;11.47;;;14.10;99.90;;;;;;4957301;29;20248;-79
2023/05/10 03:10:01;;;;;;;17.33;11.90;;;14.00;99.90;;;;;;4940132;29;20181;-81
2023/05/10 03:12:56;;;;;;;20.00;12.73;;;14.00;99.90;;;;;;4938566;29;20175;-80
2023/05/10 03:15:45;;;;;;;16.73;12.60;;;14.00;99.90;;;;;;4937705;29;20172;-79
2023/05/10 03:18:41;;;;;;;16.67;11.23;;;14.00;99.90;;;;;;4937943;29;20186;-84
2023/05/10 03:21:12;;;;;;;22.07;12.93;;;13.90;99.90;;;;;;4932470;29;20703;-80
2023/05/10 03:23:45;;;;;;;18.03;11.60;;;14.00;99.90;;;;;;4937893;29;20239;-80
2023/05/10 03:26:26;;;;;;;14.57;11.77;;;14.00;99.90;;;;;;4937901;29;20680;-80
2023/05/10 03:28:53;;;;;;;16.57;12.53;;;14.00;99.90;;;;;;4938257;29;20195;-80
2023/05/10 03:31:19;;;;;;;18.63;12.37;;;14.00;99.90;;;;;;4967211;28;20172;-81
2023/05/10 03:33:48;;;;;;;16.80;12.77;;;14.00;99.90;;;;;;4938397;29;20242;-79
2023/05/10 03:36:14;;;;;;;16.67;12.37;;;14.00;99.90;;;;;;4969507;28;20184;-79
2023/05/10 03:38:40;;;;;;;20.50;14.43;;;14.00;99.90;;;;;;4944261;29;20179;-79
2023/05/10 03:41:06;;;;;;;18.87;13.33;;;14.00;99.90;;;;;;4956398;29;20303;-79
2023/05/10 03:43:31;;;;;;;21.70;14.87;;;13.90;99.90;;;;;;4957947;29;20170;-79
2023/05/10 03:45:57;;;;;;;21.37;14.87;;;13.80;99.90;;;;;;4957666;29;20233;-82
2023/05/10 03:48:22;;;;;;;20.87;14.33;;;13.80;99.90;;;;;;4956390;28;20170;-80
2023/05/10 03:50:49;;;;;;;21.10;15.83;;;13.70;99.90;;;;;;4957099;28;20545;-81
2023/05/10 03:53:15;;;;;;;24.17;16.43;;;13.80;99.90;;;;;;4956293;29;20222;-79
2023/05/10 03:55:41;;;;;;;20.67;14.87;;;13.80;99.90;;;;;;4956436;29;20590;-80
2023/05/10 03:58:10;;;;;;;20.37;15.27;;;13.90;99.90;;;;;;4955380;29;20651;-81
2023/05/10 04:00:35;;;;;;;20.57;15.13;;;14.00;99.90;;;;;;4955436;28;20220;-79
2023/05/10 04:03:01;;;;;;;23.33;16.33;;;14.00;99.90;;;;;;4955929;28;20213;-80
2023/05/10 04:05:27;;;;;;;22.50;15.53;;;14.00;99.90;;;;;;4956116;28;20654;-79
2023/05/10 04:07:52;;;;;;;26.47;17.73;;;14.20;99.90;;;;;;4955185;29;20259;-80
2023/05/10 04:10:18;;;;;;;25.47;17.07;;;14.20;99.90;;;;;;4959741;28;20195;-80
2023/05/10 04:12:44;;;;;;;23.00;17.23;;;14.20;99.90;;;;;;4979742;28;20162;-79
2023/05/10 04:15:10;;;;;;;26.73;18.03;;;14.00;99.90;;;;;;4979986;28;20232;-80
2023/05/10 04:17:37;;;;;;;24.67;18.47;;;14.00;99.90;;;;;;4969674;28;20192;-80
2023/05/10 04:20:03;;;;;;;23.80;18.20;;;14.00;99.90;;;;;;4958997;29;20208;-85
2023/05/10 04:22:29;;;;;;;25.60;18.53;;;13.80;99.90;;;;;;4959398;29;20183;-88
2023/05/10 04:24:58;;;;;;;24.60;18.40;;;13.90;99.90;;;;;;4958311;29;20164;-87
2023/05/10 04:27:23;;;;;;;27.57;19.27;;;14.00;99.90;;;;;;4956812;29;20173;-89
2023/05/10 04:29:49;;;;;;;26.57;19.00;;;14.00;99.90;;;;;;4959995;29;20534;-78
2023/05/10 04:32:16;;;;;;;32.03;20.80;;;14.00;99.90;;;;;;4962697;28;20188;-79
2023/05/10 04:34:41;;;;;;;28.60;20.13;;;14.00;99.90;;;;;;4971928;28;20157;-79
2023/05/10 04:37:07;;;;;;;25.87;19.27;;;14.10;99.90;;;;;;4953697;29;20191;-80
2023/05/10 04:39:33;;;;;;;26.47;19.63;;;14.10;99.90;;;;;;4965906;28;20703;-89
2023/05/10 04:41:58;;;;;;;24.50;18.30;;;14.00;99.90;;;;;;4956908;28;20587;-81
2023/05/10 04:44:25;;;;;;;23.10;18.83;;;14.00;99.90;;;;;;4955164;28;20660;-84
2023/05/10 04:46:51;;;;;;;27.87;19.13;;;14.00;99.90;;;;;;4955095;29;20239;-81
2023/05/10 04:49:18;;;;;;;26.03;19.87;;;14.10;99.90;;;;;;4956119;28;20588;-86
2023/05/10 04:51:43;;;;;;;25.50;19.40;;;14.20;99.90;;;;;;4956054;29;20207;-86
2023/05/10 04:54:10;;;;;;;26.77;19.77;;;14.20;99.90;;;;;;4955270;29;20264;-84
2023/05/10 04:56:35;;;;;;;27.47;20.13;;;14.10;99.90;;;;;;4955360;28;20171;-82
2023/05/10 04:59:01;;;;;;;29.10;20.70;;;14.10;99.90;;;;;;4951692;29;20275;-80
2023/05/10 05:01:27;;;;;;;30.93;19.87;;;14.10;99.90;;;;;;4939938;29;20259;-87
2023/05/10 05:03:53;;;;;;;26.30;20.47;;;14.20;99.90;;;;;;4945542;29;20176;-85
2023/05/10 05:06:20;;;;;;;27.77;20.83;;;14.10;99.90;;;;;;4956160;28;20188;-81
2023/05/10 05:08:46;;;;;;;27.43;20.83;;;14.20;99.90;;;;;;4954927;28;20273;-81
2023/05/10 05:11:12;;;;;;;24.13;19.87;;;14.10;99.90;;;;;;4955911;28;20289;-84
2023/05/10 05:13:38;;;;;;;28.63;21.03;;;14.10;99.90;;;;;;4956297;28;20696;-82
2023/05/10 05:16:04;;;;;;;25.07;19.57;;;14.20;99.90;;;;;;4954062;29;20219;-83
2023/05/10 05:18:30;;;;;;;23.90;17.90;;;14.10;99.90;;;;;;4955070;29;20199;-85
2023/05/10 05:20:56;;;;;;;24.57;17.73;;;14.00;99.90;;;;;;4949106;28;20581;-82
2023/05/10 05:23:24;;;;;;;23.50;16.93;;;14.00;99.90;;;;;;4951410;28;20206;-84
2023/05/10 05:25:52;;;;;;;16.00;12.87;;;13.90;99.90;;;;;;4955314;28;20547;-86
2023/05/10 05:28:18;;;;;;;17.47;12.87;;;13.70;99.90;;;;;;4953582;28;20248;-85
2023/05/10 05:30:44;;;;;;;16.60;13.57;;;13.50;99.90;;;;;;4954881;28;20779;-82
2023/05/10 05:33:10;;;;;;;20.23;13.77;;;13.40;99.90;;;;;;4954972;28;20191;-86
2023/05/10 05:35:35;;;;;;;14.97;12.37;;;13.40;99.90;;;;;;4955876;28;20203;-86
2023/05/10 05:38:01;;;;;;;15.70;11.63;;;13.30;99.90;;;;;;4956680;29;20188;-87
2023/05/10 05:40:27;;;;;;;15.27;12.07;;;13.20;99.90;;;;;;4955280;29;20316;-80
2023/05/10 05:42:52;;;;;;;19.33;13.70;;;13.20;99.90;;;;;;4958011;28;20176;-81
2023/05/10 05:45:18;;;;;;;19.00;13.93;;;13.20;99.90;;;;;;4969564;28;20180;-85
2023/05/10 05:47:44;;;;;;;18.83;13.90;;;13.20;99.90;;;;;;4978029;28;20165;-79
2023/05/10 05:50:10;;;;;;;19.23;14.57;;;13.20;99.90;;;;;;4978504;28;20176;-82
2023/05/10 05:52:36;;;;;;;23.20;14.93;;;13.20;99.90;;;;;;4975838;28;20195;-81
2023/05/10 05:55:01;;;;;;;22.43;15.27;;;13.30;99.90;;;;;;4973763;28;20246;-81
2023/05/10 05:57:30;;;;;;;21.10;15.40;;;13.40;99.90;;;;;;4971722;29;20165;-86
2023/05/10 05:59:55;;;;;;;21.30;15.60;;;13.40;99.90;;;;;;4958569;29;20218;-82
2023/05/10 06:02:22;;;;;;;20.37;14.53;;;13.50;99.90;;;;;;4960132;28;20537;-89
2023/05/10 06:04:48;;;;;;;20.80;15.47;;;13.60;99.90;;;;;;4960237;28;20178;-87
2023/05/10 06:07:13;;;;;;;21.63;14.17;;;13.60;99.90;;;;;;4960519;28;20518;-84
2023/05/10 06:09:39;;;;;;;20.30;15.43;;;13.70;99.90;;;;;;4959223;28;20179;-88
2023/05/10 06:12:05;;;;;;;22.93;14.73;;;13.70;99.90;;;;;;4959358;28;20330;-85
2023/05/10 06:14:31;;;;;;;20.17;14.30;;;13.60;99.90;;;;;;4960210;28;20197;-84
2023/05/10 06:16:59;;;;;;;19.50;14.93;;;13.50;99.90;;;;;;4957259;29;20562;-89
2023/05/10 06:19:26;;;;;;;19.77;14.17;;;13.60;99.90;;;;;;4959285;28;20195;-84
2023/05/10 06:21:51;;;;;;;19.97;14.97;;;13.60;99.90;;;;;;4961266;28;20199;-79
2023/05/10 06:24:17;;;;;;;21.93;15.63;;;13.60;99.90;;;;;;4967711;28;20188;-80
2023/05/10 06:26:43;;;;;;;19.27;13.07;;;13.60;99.90;;;;;;4969672;28;20200;-78
2023/05/10 06:29:08;;;;;;;16.83;11.77;;;13.60;99.90;;;;;;4966463;28;20287;-78
2023/05/10 06:31:34;;;;;;;19.00;13.97;;;13.60;99.90;;;;;;4968023;28;20199;-80
2023/05/10 06:34:02;;;;;;;14.03;9.90;;;13.50;99.90;;;;;;4970179;28;20188;-82
2023/05/10 06:36:27;;;;;;;14.40;11.07;;;13.50;99.90;;;;;;4976033;28;20188;-81
2023/05/10 06:38:53;;;;;;;15.97;11.90;;;13.60;99.90;;;;;;4974061;28;20251;-83
2023/05/10 06:41:20;;;;;;;14.87;9.53;;;13.50;99.90;;;;;;4972560;28;20165;-79
2023/05/10 06:43:45;;;;;;;13.87;9.70;;;13.50;99.90;;;;;;4973919;28;20176;-78
2023/05/10 06:46:11;;;;;;;15.90;9.73;;;13.60;99.90;;;;;;4973674;28;20177;-79
2023/05/10 06:48:37;;;;;;;16.63;10.43;;;13.60;99.90;;;;;;4967916;28;20599;-78
2023/05/10 06:51:02;;;;;;;17.47;10.57;;;13.50;99.90;;;;;;4958973;28;20184;-78
2023/05/10 06:53:34;;;;;;;17.10;10.87;;;13.50;99.90;;;;;;4960750;28;20169;-78
2023/05/10 06:56:02;;;;;;;16.90;11.33;;;13.50;99.90;;;;;;4956977;28;20188;-79
2023/05/10 06:58:32;;;;;;;17.87;10.43;;;13.40;99.90;;;;;;4959695;29;20703;-80
2023/05/10 07:01:10;;;;;;;16.70;10.67;;;13.40;99.90;;;;;;4963862;28;20744;-80
2023/05/10 07:03:35;;;;;;;18.37;10.87;;;13.40;99.90;;;;;;4961374;28;20218;-81
2023/05/10 07:06:03;;;;;;;15.77;11.37;;;13.30;99.90;;;;;;4957010;28;20652;-81
2023/05/10 07:08:31;;;;;;;18.37;11.63;;;13.30;99.90;;;;;;4955357;28;20184;-81
2023/05/10 07:11:05;;;;;;;20.17;11.63;;;13.30;99.90;;;;;;4957792;29;20259;-88
2023/05/10 07:13:43;;;;;;;18.23;11.77;;;13.20;99.90;;;;;;4958029;28;20219;-79
2023/05/10 07:16:11;;;;;;;21.23;12.20;;;13.30;99.90;;;;;;4965851;28;20187;-79
2023/05/10 07:18:37;;;;;;;19.10;11.83;;;13.30;99.90;;;;;;4967517;28;20173;-81
2023/05/10 07:21:09;;;;;;;18.10;13.63;;;13.30;99.90;;;;;;4954614;28;20175;-80
2023/05/10 07:23:38;;;;;;;23.57;12.30;;;13.20;99.90;;;;;;4950442;29;20275;-86
2023/05/10 07:26:10;;;;;;;21.73;12.57;;;13.30;99.90;;;;;;4958610;28;20176;-82
2023/05/10 07:28:44;;;;;;;18.40;10.87;;;13.40;99.90;;;;;;4955826;28;20199;-80
2023/05/10 07:31:10;;;;;;;16.53;11.10;;;13.30;99.90;;;;;;4957730;28;20498;-87
2023/05/10 07:33:36;;;;;;;15.00;9.80;;;13.20;99.90;;;;;;4958781;28;20260;-84
2023/05/10 07:36:01;;;;;;;16.53;10.67;;;13.20;99.90;;;;;;4963951;28;20199;-82
2023/05/10 07:38:29;;;;;;;17.07;10.47;;;13.20;99.90;;;;;;4978160;28;20183;-82
2023/05/10 07:40:57;;;;;;;20.80;12.03;;;13.10;99.90;;;;;;4976986;28;20230;-82
2023/05/10 07:43:23;;;;;;;17.67;10.97;;;13.10;99.90;;;;;;4958065;29;20184;-81
2023/05/10 07:45:53;;;;;;;19.80;11.57;;;13.30;99.90;;;;;;4953605;29;20715;-87
2023/05/10 07:48:25;;;;;;;18.50;10.97;;;13.30;99.90;;;;;;4958997;29;20222;-96
2023/05/10 07:50:51;;;;;;;18.83;11.73;;;13.30;99.90;;;;;;4953901;28;20185;-89
2023/05/10 07:53:19;;;;;;;19.63;11.50;;;13.20;99.90;;;;;;4955581;28;20184;-87
2023/05/10 07:55:51;;;;;;;15.83;11.07;;;13.20;99.90;;;;;;4974478;28;20184;-82
2023/05/10 07:58:21;;;;;;;14.17;9.60;;;13.20;99.90;;;;;;4970596;28;20882;-81
2023/05/10 08:00:49;;;;;;;18.43;10.60;;;13.10;99.90;;;;;;4966763;28;20220;-92
2023/05/10 08:03:17;;;;;;;14.10;9.97;;;13.10;99.90;;;;;;4962413;28;20265;-91
2023/05/10 08:05:46;;;;;;;15.17;9.60;;;13.10;99.90;;;;;;4958430;29;20251;-86
2023/05/10 08:08:12;;;;;;;15.13;9.63;;;13.10;99.90;;;;;;4961508;29;20191;-79
2023/05/10 08:10:41;;;;;;;14.03;8.63;;;13.20;99.90;;;;;;4967521;28;20181;-80
2023/05/10 08:13:07;;;;;;;14.00;8.77;;;13.10;99.90;;;;;;4964139;28;20183;-80
2023/05/10 08:15:33;;;;;;;11.70;8.27;;;13.20;99.90;;;;;;4970552;29;20183;-81
2023/05/10 08:17:59;;;;;;;10.37;7.93;;;13.30;99.90;;;;;;4959255;28;20190;-80
2023/05/10 08:20:25;;;;;;;10.93;7.37;;;13.30;99.90;;;;;;4957880;28;20547;-81
2023/05/10 08:22:52;;;;;;;8.13;6.40;;;13.40;99.90;;;;;;4957008;29;20206;-81
2023/05/10 08:25:18;;;;;;;10.17;6.43;;;13.40;99.90;;;;;;4959253;28;20193;-80
2023/05/10 08:27:48;;;;;;;8.07;6.13;;;13.50;99.90;;;;;;4941645;29;20297;-81
2023/05/10 08:30:14;;;;;;;8.17;6.07;;;13.50;99.90;;;;;;4960362;28;20181;-80
2023/05/10 08:32:41;;;;;;;9.83;5.87;;;13.50;99.90;;;;;;4954448;28;20669;-80
2023/05/10 08:35:07;;;;;;;9.33;6.20;;;13.70;99.90;;;;;;4973050;28;20199;-82
2023/05/10 08:37:33;;;;;;;10.67;6.50;;;13.70;99.90;;;;;;4954842;28;20207;-80
2023/05/10 08:39:58;;;;;;;9.43;6.43;;;13.90;99.90;;;;;;4953530;28;20215;-83
2023/05/10 08:42:27;;;;;;;9.53;6.63;;;13.70;99.90;;;;;;4949826;29;20180;-81
2023/05/10 08:44:54;;;;;;;12.07;7.50;;;13.80;99.90;;;;;;4954070;28;20184;-82
2023/05/10 08:47:20;;;;;;;7.83;6.10;;;14.10;99.90;;;;;;4955087;28;20175;-83
2023/05/10 08:49:51;;;;;;;9.07;6.40;;;14.30;99.90;;;;;;4953355;28;20184;-82
2023/05/10 08:52:19;;;;;;;9.63;6.40;;;14.30;99.90;;;;;;4953612;28;20651;-82
2023/05/10 08:54:45;;;;;;;9.90;6.87;;;14.30;99.90;;;;;;4961082;28;20184;-82
2023/05/10 08:57:20;;;;;;;7.63;6.60;;;14.20;99.90;;;;;;4971880;28;20216;-79
2023/05/10 08:59:46;;;;;;;8.30;6.93;;;14.30;99.90;;;;;;4973194;28;20258;-80
2023/05/10 09:02:14;;;;;;;9.20;7.00;;;14.20;99.90;;;;;;4975531;28;20200;-80
2023/05/10 09:04:41;;;;;;;9.17;6.93;;;14.20;99.90;;;;;;4977328;28;20576;-79
2023/05/10 09:07:07;;;;;;;9.70;6.80;;;14.10;99.90;;;;;;4948409;29;20173;-87
2023/05/10 09:09:33;;;;;;;13.13;7.17;;;14.20;99.90;;;;;;4943393;29;20173;-86
2023/05/10 09:12:00;;;;;;;9.20;7.17;;;14.20;99.90;;;;;;4967499;28;20275;-85
2023/05/10 09:14:26;;;;;;;9.73;7.47;;;14.10;99.90;;;;;;4965150;28;20279;-81
2023/05/10 09:16:54;;;;;;;10.23;7.90;;;13.90;99.90;;;;;;4960473;28;20178;-89
2023/05/10 09:19:22;;;;;;;10.87;7.60;;;14.00;99.90;;;;;;4955916;28;20231;-82
2023/05/10 09:21:49;;;;;;;9.60;7.97;;;13.90;99.90;;;;;;4976538;28;20175;-86
2023/05/10 09:24:15;;;;;;;9.97;7.10;;;13.90;99.90;;;;;;4959334;28;20193;-82
2023/05/10 09:26:48;;;;;;;10.37;7.73;;;13.90;99.90;;;;;;4981175;28;20183;-85
2023/05/10 09:29:14;;;;;;;9.93;6.87;;;13.90;99.90;;;;;;4957117;28;20191;-81
2023/05/10 09:31:51;;;;;;;8.07;6.07;;;14.00;99.90;;;;;;4970904;28;20252;-90
2023/05/10 09:34:31;;;;;;;7.50;5.80;;;13.90;99.90;;;;;;4956843;28;20231;-89
2023/05/10 09:37:01;;;;;;;7.50;6.13;;;14.00;99.90;;;;;;4956160;28;20254;-83
2023/05/10 09:39:34;;;;;;;7.50;6.07;;;13.90;99.90;;;;;;4956906;28;20230;-85
2023/05/10 09:42:06;;;;;;;7.13;6.20;;;13.90;99.90;;;;;;4958971;28;20173;-81
2023/05/10 09:44:33;;;;;;;7.40;5.43;;;13.70;99.90;;;;;;4957690;28;20264;-91
2023/05/10 09:46:59;;;;;;;8.70;5.70;;;13.70;99.90;;;;;;4958155;28;20183;-83
2023/05/10 09:49:24;;;;;;;7.03;5.73;;;13.80;99.90;;;;;;4973667;28;20231;-82
2023/05/10 09:52:03;;;;;;;7.23;6.07;;;13.80;99.90;;;;;;4959702;28;20255;-92
2023/05/10 09:54:28;;;;;;;6.97;6.07;;;13.80;99.90;;;;;;4960691;28;20172;-82
2023/05/10 09:56:54;;;;;;;8.23;5.67;;;13.80;99.90;;;;;;4967570;28;20169;-83
2023/05/10 09:59:20;;;;;;;7.70;6.13;;;13.80;99.90;;;;;;4962377;29;20191;-91
2023/05/10 10:01:56;;;;;;;8.97;6.07;;;13.80;99.90;;;;;;4961742;28;20165;-86
2023/05/10 10:04:21;;;;;;;9.27;7.00;;;13.90;99.90;;;;;;4981693;28;20181;-91
2023/05/10 10:06:59;;;;;;;8.30;7.03;;;13.90;99.90;;;;;;4976993;28;20173;-83
2023/05/10 10:09:25;;;;;;;9.53;6.50;;;13.90;99.90;;;;;;4957104;28;20176;-81
2023/05/10 10:11:53;;;;;;;8.50;6.27;;;14.00;99.90;;;;;;4975114;28;20184;-80
2023/05/10 10:14:21;;;;;;;8.13;6.80;;;14.00;99.90;;;;;;4965259;28;20184;-80
2023/05/10 10:16:48;;;;;;;8.13;6.40;;;14.00;99.90;;;;;;4975267;28;20192;-80
2023/05/10 10:19:15;;;;;;;7.30;6.60;;;14.00;99.90;;;;;;4958053;28;20201;-85
2023/05/10 10:21:41;;;;;;;8.47;7.10;;;13.90;99.90;;;;;;4972465;28;20280;-80
2023/05/10 10:24:06;;;;;;;7.37;6.40;;;14.00;99.90;;;;;;4959419;29;20227;-84
2023/05/10 10:26:42;;;;;;;6.90;6.20;;;14.10;99.90;;;;;;4962480;29;20184;-82
2023/05/10 10:29:30;;;;;;;7.80;6.83;;;14.20;99.90;;;;;;4952472;28;20203;-84
2023/05/10 10:32:21;;;;;;;8.43;6.67;;;14.20;99.90;;;;;;4967904;28;20192;-81
2023/05/10 10:34:47;;;;;;;9.17;6.63;;;14.10;99.90;;;;;;4974318;28;20231;-82
2023/05/10 10:37:13;;;;;;;9.07;6.93;;;14.20;99.90;;;;;;4963748;29;20183;-81
2023/05/10 10:39:39;;;;;;;7.20;6.43;;;14.20;99.90;;;;;;4955220;29;20212;-81
2023/05/10 10:42:05;;;;;;;8.13;6.70;;;14.30;99.90;;;;;;4958535;28;20589;-81
2023/05/10 10:44:31;;;;;;;8.33;7.37;;;14.50;99.90;;;;;;4958475;28;20169;-81
2023/05/10 10:47:22;;;;;;;8.37;6.97;;;14.50;99.90;;;;;;4956431;29;20187;-82
2023/05/10 10:50:03;;;;;;;9.17;6.67;;;14.50;99.90;;;;;;4956852;29;20288;-82
2023/05/10 10:52:38;;;;;;;8.80;6.20;;;14.40;99.90;;;;;;4957659;29;20176;-89
2023/05/10 10:55:15;;;;;;;9.27;7.17;;;14.50;99.90;;;;;;4961543;28;20530;-81
2023/05/10 10:57:40;;;;;;;11.17;8.40;;;14.60;99.90;;;;;;4960566;28;20195;-81
2023/05/10 11:00:28;;;;;;;10.73;8.30;;;14.70;99.90;;;;;;4959940;28;20686;-88
2023/05/10 11:03:06;;;;;;;9.20;7.87;;;14.70;99.90;;;;;;4953572;28;20185;-84
2023/05/10 11:05:46;;;;;;;10.37;7.50;;;14.70;99.90;;;;;;4959076;29;20183;-88
2023/05/10 11:08:27;;;;;;;12.33;7.70;;;14.70;99.90;;;;;;4960778;28;20168;-90
2023/05/10 11:10:59;;;;;;;11.07;7.90;;;14.70;99.90;;;;;;4958665;28;20171;-89
2023/05/10 11:13:48;;;;;;;9.70;6.87;;;14.80;99.90;;;;;;4958434;28;20180;-85
2023/05/10 11:16:26;;;;;;;7.97;6.00;;;14.90;99.90;;;;;;4954110;29;20178;-82
2023/05/10 11:19:01;;;;;;;8.30;6.43;;;14.90;99.90;;;;;;4959298;29;20189;-81
2023/05/10 11:21:28;;;;;;;8.43;6.90;;;15.00;99.90;;;;;;4956943;29;20189;-81
2023/05/10 11:23:59;;;;;;;7.77;6.20;;;15.00;99.90;;;;;;4956676;29;20568;-84
2023/05/10 11:26:33;;;;;;;8.50;7.13;;;15.30;99.90;;;;;;4956300;29;20669;-83
2023/05/10 11:29:01;;;;;;;10.07;6.83;;;15.50;99.90;;;;;;4958596;28;20196;-88
2023/05/10 11:31:27;;;;;;;8.57;6.27;;;15.60;98.20;;;;;;4958042;29;20581;-91
2023/05/10 11:33:58;;;;;;;8.23;6.93;;;15.60;97.40;;;;;;4958880;29;20182;-80
2023/05/10 11:36:27;;;;;;;10.07;7.63;;;15.60;97.50;;;;;;4964498;29;20184;-83
2023/05/10 11:38:53;;;;;;;10.60;7.90;;;15.50;92.00;;;;;;4964857;29;20278;-81
2023/05/10 11:41:23;;;;;;;9.93;8.47;;;15.40;92.10;;;;;;4959211;28;20160;-81
2023/05/10 11:43:55;;;;;;;7.77;6.90;;;15.50;93.60;;;;;;4959251;28;20247;-83
2023/05/10 11:46:23;;;;;;;9.70;7.53;;;15.30;93.60;;;;;;4959869;28;20230;-82
2023/05/10 11:48:57;;;;;;;9.13;7.30;;;15.20;93.00;;;;;;4957813;29;20585;-81
2023/05/10 11:51:24;;;;;;;9.03;7.33;;;15.30;94.90;;;;;;4960025;28;20186;-81
2023/05/10 11:53:54;;;;;;;9.60;7.80;;;15.30;93.50;;;;;;4963098;28;20173;-81
2023/05/10 11:56:23;;;;;;;10.30;8.20;;;15.30;91.80;;;;;;4962325;28;20223;-82
2023/05/10 11:58:57;;;;;;;9.30;7.73;;;15.30;91.50;;;;;;4960342;28;20180;-82
2023/05/10 12:01:27;;;;;;;9.83;7.93;;;15.30;95.30;;;;;;4957662;29;20185;-83
2023/05/10 12:03:58;;;;;;;9.67;7.83;;;15.40;96.10;;;;;;4957654;28;20586;-81
2023/05/10 12:06:32;;;;;;;9.50;7.60;;;15.50;96.90;;;;;;4965623;29;20167;-81
2023/05/10 12:08:58;;;;;;;10.17;8.10;;;15.60;96.30;;;;;;4975028;28;20159;-81
2023/05/10 12:11:30;;;;;;;10.87;8.17;;;15.70;92.90;;;;;;4978767;28;20239;-85
2023/05/10 12:13:59;;;;;;;10.30;8.67;;;15.80;80.90;;;;;;4978609;28;20176;-82
2023/05/10 12:16:37;;;;;;;11.53;9.03;;;15.70;80.40;;;;;;4967612;28;20232;-81
2023/05/10 12:19:08;;;;;;;10.63;9.10;;;15.70;83.70;;;;;;4962906;28;20168;-82
2023/05/10 12:21:38;;;;;;;11.67;9.40;;;15.60;83.90;;;;;;4959034;28;20638;-85
2023/05/10 12:24:27;;;;;;;10.80;8.80;;;15.50;90.20;;;;;;4972706;28;20194;-83
2023/05/10 12:26:55;;;;;;;10.90;9.23;;;15.40;91.00;;;;;;4956238;29;20176;-81
2023/05/10 12:29:23;;;;;;;13.90;10.27;;;15.40;91.90;;;;;;4958732;28;20264;-81
2023/05/10 12:31:54;;;;;;;12.97;9.77;;;15.40;91.50;;;;;;4936237;29;20208;-81
2023/05/10 12:34:41;;;;;;;10.17;8.03;;;15.60;94.10;;;;;;4936457;29;20169;-81
2023/05/10 12:37:13;;;;;;;9.97;7.80;;;15.70;81.10;;;;;;4950818;29;20191;-81
2023/05/10 12:39:44;;;;;;;10.83;8.27;;;15.70;63.70;;;;;;4954982;28;20209;-80
2023/05/10 12:42:11;;;;;;;10.07;7.70;;;15.80;64.00;;;;;;4956454;28;20160;-82